KCNU/CNU METAR and TAF weather

Enter ICAO airport designator
Station Type Date Time Source
KCNU METAR 2021/03/06 04:52 UTC NOAA

KCNU 060452Z AUTO 17005KT 10SM CLR 04/02 A3032 RMK AO2 SLP268 T00390022


Station Type Date Time Source
KCNU Decoded METAR 2021/03/06 04:52 UTC NOAA

CHANUTE JOHNSON AIRPORT, KS, United States (KCNU) 37-40N 95-29W 297M
Mar 05, 2021 - 11:52 PM EST / 2021.03.06 0452 UTC
Wind: from the S (170 degrees) at 6 MPH (5 KT):0
Visibility: 10 mile(s):0
Sky conditions: clear
Temperature: 39.0 F (3.9 C)
Dew Point: 36.0 F (2.2 C)
Relative Humidity: 88%
Pressure (altimeter): 30.32 in. Hg (1026 hPa)
ob: KCNU 060452Z AUTO 17005KT 10SM CLR 04/02 A3032 RMK AO2 SLP268 T00390022
cycle: 5

Station Type Date Time Source
KCNU TAF 2021/03/05 18:36 UTC NOAA

TAF KCNU 051733Z 0518/0618 08010KT P6SM BKN090
FM052100 07010KT P6SM SCT080
FM060500 12005KT P6SM SKC

Example: see airport list